Time;durP1;ratioP1;P1;durP2;ratioP2;P2;SDS_P1;SDS_P2;PMS_P1;PMS_P2;Temp;Humidity;BMP_temperature;BMP_pressure;BME280_temperature;BME280_humidity;BME280_pressure;Samples;Min_cycle;Max_cycle;Signal;HPM_P1;HPM_P2
2022/06/16 00:01:43;;;;;;;10.93;2.50;;;;;;;;;;5035031;28;20022;-83
2022/06/16 00:04:09;;;;;;;4.05;2.15;;;;;;;;;;5016767;28;20029;-83
2022/06/16 00:07:03;;;;;;;4.20;2.33;;;;;;;;;;5059153;28;20056;-83
2022/06/16 00:09:29;;;;;;;3.83;2.38;;;;;;;;;;5031602;28;20053;-84
2022/06/16 00:11:54;;;;;;;3.33;2.10;;;;;;;;;;5022978;28;20021;-84
2022/06/16 00:14:27;;;;;;;3.28;2.30;;;;;;;;;;5040355;28;20312;-82
2022/06/16 00:17:08;;;;;;;4.70;2.40;;;;;;;;;;5015970;28;20045;-82
2022/06/16 00:19:42;;;;;;;3.85;2.45;;;;;;;;;;5039659;28;20089;-84
2022/06/16 00:22:07;;;;;;;3.38;2.20;;;;;;;;;;5039073;28;20025;-84
2022/06/16 00:24:33;;;;;;;7.32;2.22;;;;;;;;;;5037851;28;20104;-83
2022/06/16 00:26:58;;;;;;;4.15;2.50;;;;;;;;;;5038154;28;20514;-83
2022/06/16 00:29:24;;;;;;;3.47;2.40;;;;;;;;;;5028322;28;20029;-82
2022/06/16 00:31:50;;;;;;;3.15;2.40;;;;;;;;;;5021323;28;20047;-83
2022/06/16 00:34:16;;;;;;;7.18;3.13;;;;;;;;;;5021632;28;20116;-82
2022/06/16 00:36:41;;;;;;;6.78;2.22;;;;;;;;;;5039828;28;20021;-83
2022/06/16 00:39:13;;;;;;;4.05;2.40;;;;;;;;;;5040650;28;20059;-83
2022/06/16 00:41:38;;;;;;;4.72;2.40;;;;;;;;;;5059266;28;20033;-85
2022/06/16 00:44:28;;;;;;;2.28;2.08;;;;;;;;;;5065278;28;20029;-85
2022/06/16 00:46:54;;;;;;;3.13;2.33;;;;;;;;;;5043888;28;20104;-85
2022/06/16 00:49:19;;;;;;;2.63;2.40;;;;;;;;;;5065161;28;20064;-84
2022/06/16 00:51:51;;;;;;;4.45;2.40;;;;;;;;;;5065103;28;20313;-84
2022/06/16 00:54:27;;;;;;;3.67;2.10;;;;;;;;;;5044265;28;20048;-84
2022/06/16 00:56:55;;;;;;;5.78;2.40;;;;;;;;;;5044233;28;20025;-85
2022/06/16 00:59:22;;;;;;;4.30;2.83;;;;;;;;;;5052816;28;20666;-84
2022/06/16 01:01:48;;;;;;;3.10;2.10;;;;;;;;;;5063170;28;20036;-84
2022/06/16 01:07:00;;;;;;;4.63;2.53;;;;;;;;;;5059215;28;20028;-83
2022/06/16 01:09:38;;;;;;;3.80;2.40;;;;;;;;;;5045375;28;20029;-84
2022/06/16 01:15:33;;;;;;;3.10;2.10;;;;;;;;;;5044431;28;20032;-84
2022/06/16 01:18:20;;;;;;;7.03;2.70;;;;;;;;;;5044396;28;20033;-83
2022/06/16 01:21:04;;;;;;;3.83;2.40;;;;;;;;;;5022154;28;20125;-87
2022/06/16 01:23:55;;;;;;;4.30;2.50;;;;;;;;;;5034414;28;20029;-87
2022/06/16 01:26:36;;;;;;;3.30;2.10;;;;;;;;;;5021325;28;20033;-86
2022/06/16 01:29:08;;;;;;;3.60;2.05;;;;;;;;;;5047235;28;20045;-87
2022/06/16 01:31:40;;;;;;;3.22;2.40;;;;;;;;;;5039434;28;20021;-86
2022/06/16 01:34:43;;;;;;;4.50;2.40;;;;;;;;;;5041777;28;20033;-88
2022/06/16 01:37:13;;;;;;;6.80;2.83;;;;;;;;;;5002121;28;20030;-88
2022/06/16 01:40:10;;;;;;;3.17;2.20;;;;;;;;;;5050772;28;20534;-88
2022/06/16 01:42:54;;;;;;;3.20;2.28;;;;;;;;;;5045420;28;20029;-87
2022/06/16 01:45:28;;;;;;;4.65;2.72;;;;;;;;;;5021002;28;20045;-87
2022/06/16 01:47:55;;;;;;;3.55;2.30;;;;;;;;;;5029277;28;20052;-85
2022/06/16 01:50:58;;;;;;;4.50;2.53;;;;;;;;;;5020213;28;20029;-85
2022/06/16 01:53:33;;;;;;;3.53;2.55;;;;;;;;;;5031997;28;20030;-85
2022/06/16 01:56:22;;;;;;;3.33;2.67;;;;;;;;;;5040314;28;20112;-86
2022/06/16 01:58:59;;;;;;;3.47;2.60;;;;;;;;;;5023949;28;20017;-85
2022/06/16 02:01:29;;;;;;;5.47;2.97;;;;;;;;;;5036258;28;20095;-85
2022/06/16 02:04:06;;;;;;;11.60;2.80;;;;;;;;;;5022045;28;20032;-85
2022/06/16 02:06:35;;;;;;;5.05;2.35;;;;;;;;;;5060993;28;20025;-85
2022/06/16 02:09:07;;;;;;;10.85;2.70;;;;;;;;;;5051760;28;20036;-84
2022/06/16 02:11:34;;;;;;;4.35;2.35;;;;;;;;;;5050694;28;20215;-85
2022/06/16 02:14:06;;;;;;;5.40;2.42;;;;;;;;;;5018104;28;20036;-84
2022/06/16 02:16:33;;;;;;;4.18;2.53;;;;;;;;;;5017593;28;20120;-85
2022/06/16 02:19:01;;;;;;;5.70;2.88;;;;;;;;;;5023975;28;20113;-85
2022/06/16 02:21:39;;;;;;;5.95;2.47;;;;;;;;;;5021434;28;20367;-85
2022/06/16 02:24:09;;;;;;;5.15;2.70;;;;;;;;;;5018548;28;20087;-84
2022/06/16 02:26:36;;;;;;;12.65;3.20;;;;;;;;;;5018459;28;20116;-84
2022/06/16 02:29:32;;;;;;;3.80;2.70;;;;;;;;;;5024275;28;20021;-85
2022/06/16 02:32:19;;;;;;;5.10;2.55;;;;;;;;;;5016657;28;20025;-84
2022/06/16 02:34:55;;;;;;;3.72;2.85;;;;;;;;;;5016521;28;20026;-85
2022/06/16 02:37:33;;;;;;;7.25;3.13;;;;;;;;;;4998646;28;20079;-85
2022/06/16 02:40:23;;;;;;;7.40;2.75;;;;;;;;;;5024258;28;20140;-85
2022/06/16 02:43:10;;;;;;;5.93;2.80;;;;;;;;;;5035425;28;20060;-85
2022/06/16 02:45:50;;;;;;;3.30;2.30;;;;;;;;;;5017126;28;20025;-85
2022/06/16 02:48:28;;;;;;;4.20;2.55;;;;;;;;;;5035513;28;20053;-85
2022/06/16 02:51:08;;;;;;;2.47;2.22;;;;;;;;;;5038960;28;20029;-86
2022/06/16 02:53:54;;;;;;;5.72;3.25;;;;;;;;;;5020300;28;20025;-85
2022/06/16 02:56:30;;;;;;;3.92;2.40;;;;;;;;;;5054492;28;20031;-86
2022/06/16 02:59:01;;;;;;;3.58;2.58;;;;;;;;;;5048583;28;20055;-86
2022/06/16 03:01:28;;;;;;;11.57;2.90;;;;;;;;;;5021197;28;20060;-86
2022/06/16 03:04:19;;;;;;;6.18;3.15;;;;;;;;;;5018556;28;20120;-84
2022/06/16 03:06:45;;;;;;;3.90;2.67;;;;;;;;;;5034177;28;20057;-86
2022/06/16 03:09:12;;;;;;;4.07;3.28;;;;;;;;;;5026311;28;20037;-86
2022/06/16 03:11:38;;;;;;;3.28;2.67;;;;;;;;;;5019817;28;20025;-84
2022/06/16 03:14:04;;;;;;;6.25;3.53;;;;;;;;;;5029141;28;20028;-84
2022/06/16 03:16:31;;;;;;;4.85;3.10;;;;;;;;;;5054855;28;20359;-85
2022/06/16 03:18:56;;;;;;;4.65;3.15;;;;;;;;;;5054108;28;20640;-84
2022/06/16 03:21:22;;;;;;;8.98;2.97;;;;;;;;;;5055231;28;20032;-84
2022/06/16 03:23:47;;;;;;;7.93;3.30;;;;;;;;;;5041996;28;20424;-84
2022/06/16 03:26:13;;;;;;;5.78;3.35;;;;;;;;;;5024028;28;20027;-84
2022/06/16 03:28:38;;;;;;;5.80;3.47;;;;;;;;;;5047917;28;20029;-84
2022/06/16 03:31:04;;;;;;;7.80;3.47;;;;;;;;;;5048908;28;20032;-84
2022/06/16 03:33:29;;;;;;;4.68;3.10;;;;;;;;;;5055010;28;20017;-84
2022/06/16 03:35:56;;;;;;;3.13;2.67;;;;;;;;;;5036449;28;20025;-84
2022/06/16 03:40:57;;;;;;;5.00;3.10;;;;;;;;;;5047947;28;20371;-84
2022/06/16 03:43:23;;;;;;;4.00;3.15;;;;;;;;;;5035971;28;20023;-85
2022/06/16 03:45:48;;;;;;;4.32;2.92;;;;;;;;;;5054101;28;20033;-85
2022/06/16 03:48:14;;;;;;;4.63;3.38;;;;;;;;;;5035940;28;20031;-85
2022/06/16 03:50:40;;;;;;;5.35;3.08;;;;;;;;;;5054141;28;20020;-85
2022/06/16 03:53:05;;;;;;;8.55;3.58;;;;;;;;;;5034765;28;20080;-85
2022/06/16 03:55:31;;;;;;;4.57;2.88;;;;;;;;;;5043103;28;20031;-86
2022/06/16 03:57:57;;;;;;;6.30;3.80;;;;;;;;;;5034083;28;20048;-87
2022/06/16 04:00:23;;;;;;;4.22;2.97;;;;;;;;;;5048539;28;20014;-86
2022/06/16 04:03:59;;;;;;;5.60;3.42;;;;;;;;;;5021479;28;20175;-85
2022/06/16 04:05:38;;;;;;;4.18;2.83;;;;;;;;;;5035733;28;20109;-87
2022/06/16 04:08:04;;;;;;;4.03;3.10;;;;;;;;;;5023909;28;20036;-85
2022/06/16 04:10:29;;;;;;;4.30;3.03;;;;;;;;;;5048012;28;20029;-86
2022/06/16 04:12:55;;;;;;;3.92;3.10;;;;;;;;;;5035319;28;20083;-86
2022/06/16 04:15:20;;;;;;;4.93;2.83;;;;;;;;;;5015415;28;20415;-86
2022/06/16 04:17:46;;;;;;;4.10;2.97;;;;;;;;;;5015401;28;20034;-87
2022/06/16 04:20:14;;;;;;;4.32;3.00;;;;;;;;;;5016052;28;20027;-87
2022/06/16 04:22:41;;;;;;;4.22;3.15;;;;;;;;;;5033094;28;20037;-87
2022/06/16 04:25:12;;;;;;;6.03;2.67;;;;;;;;;;5016383;28;20063;-87
2022/06/16 04:27:38;;;;;;;5.13;3.10;;;;;;;;;;5017719;28;20060;-87
2022/06/16 04:30:05;;;;;;;6.65;3.00;;;;;;;;;;5017841;28;20022;-87
2022/06/16 04:32:30;;;;;;;3.40;2.60;;;;;;;;;;5015953;28;20129;-87
2022/06/16 04:34:56;;;;;;;4.35;3.08;;;;;;;;;;5015616;28;20142;-87
2022/06/16 04:37:21;;;;;;;4.75;3.03;;;;;;;;;;5033462;28;20021;-86
2022/06/16 04:39:47;;;;;;;5.15;2.72;;;;;;;;;;5023758;28;20108;-85
2022/06/16 04:42:12;;;;;;;4.03;2.67;;;;;;;;;;5016086;28;20091;-88
2022/06/16 04:44:39;;;;;;;6.38;3.15;;;;;;;;;;5015692;28;20025;-86
2022/06/16 04:47:06;;;;;;;4.07;2.70;;;;;;;;;;5033331;28;20386;-87
2022/06/16 04:49:31;;;;;;;2.75;2.53;;;;;;;;;;5015756;28;20510;-87
2022/06/16 04:51:57;;;;;;;3.65;2.75;;;;;;;;;;5015895;28;20022;-87
2022/06/16 04:54:22;;;;;;;3.67;2.67;;;;;;;;;;5034064;28;20371;-87
2022/06/16 04:56:48;;;;;;;3.50;2.53;;;;;;;;;;5040142;28;20017;-86
2022/06/16 04:59:13;;;;;;;4.60;2.97;;;;;;;;;;5038395;28;20097;-88
2022/06/16 05:01:39;;;;;;;6.97;3.03;;;;;;;;;;5017745;28;20026;-87
2022/06/16 05:04:05;;;;;;;5.95;2.60;;;;;;;;;;5015968;28;20029;-87
2022/06/16 05:06:31;;;;;;;4.78;2.63;;;;;;;;;;5033431;28;20029;-87
2022/06/16 05:08:56;;;;;;;7.05;2.92;;;;;;;;;;5023397;28;20025;-87
2022/06/16 05:11:21;;;;;;;4.03;2.85;;;;;;;;;;5022271;28;20628;-87
2022/06/16 05:13:47;;;;;;;5.80;2.97;;;;;;;;;;5033557;28;20037;-86
2022/06/16 05:16:12;;;;;;;4.10;2.72;;;;;;;;;;5015746;28;20029;-87
2022/06/16 05:18:38;;;;;;;6.32;3.05;;;;;;;;;;5016204;28;20021;-86
2022/06/16 05:21:09;;;;;;;3.92;2.42;;;;;;;;;;5015618;28;20021;-87
2022/06/16 05:23:35;;;;;;;3.92;3.08;;;;;;;;;;5016833;28;20029;-87
2022/06/16 05:26:01;;;;;;;3.83;2.50;;;;;;;;;;5016595;28;20040;-87
2022/06/16 05:28:26;;;;;;;5.25;2.60;;;;;;;;;;5042696;28;20025;-86
2022/06/16 05:30:52;;;;;;;2.92;2.53;;;;;;;;;;5029201;28;20032;-87
2022/06/16 05:33:17;;;;;;;4.05;2.47;;;;;;;;;;5055341;28;20025;-87
2022/06/16 05:35:43;;;;;;;5.93;2.67;;;;;;;;;;5058814;28;20478;-87
2022/06/16 05:38:08;;;;;;;3.55;2.60;;;;;;;;;;5022437;28;20040;-88
2022/06/16 05:40:33;;;;;;;5.75;2.35;;;;;;;;;;5058594;28;20021;-88
2022/06/16 05:42:59;;;;;;;2.67;2.20;;;;;;;;;;5059842;28;20037;-87
2022/06/16 05:45:24;;;;;;;5.45;2.38;;;;;;;;;;5060245;28;20089;-87
2022/06/16 05:47:50;;;;;;;4.75;2.70;;;;;;;;;;5043964;28;20040;-87
2022/06/16 05:50:17;;;;;;;5.05;2.42;;;;;;;;;;5044013;28;20597;-87
2022/06/16 05:52:43;;;;;;;4.60;2.45;;;;;;;;;;5055880;28;20025;-87
2022/06/16 05:55:13;;;;;;;3.05;2.00;;;;;;;;;;5044803;28;20040;-87
2022/06/16 05:57:38;;;;;;;5.18;2.55;;;;;;;;;;5023961;28;20041;-87
2022/06/16 06:00:06;;;;;;;2.42;2.20;;;;;;;;;;5019213;28;20108;-88
2022/06/16 06:02:31;;;;;;;4.47;2.42;;;;;;;;;;5022761;28;20029;-88
2022/06/16 06:04:56;;;;;;;3.38;2.28;;;;;;;;;;5042493;28;20030;-88
2022/06/16 06:07:22;;;;;;;3.72;3.20;;;;;;;;;;5026763;28;20040;-88
2022/06/16 06:17:47;;;;;;;5.05;2.28;;;;;;;;;;5043330;28;20119;-88
2022/06/16 06:20:12;;;;;;;3.60;2.60;;;;;;;;;;5036796;28;20047;-88
2022/06/16 06:22:38;;;;;;;4.13;2.83;;;;;;;;;;5017975;28;20059;-88
2022/06/16 06:25:04;;;;;;;3.60;2.40;;;;;;;;;;5018043;28;20467;-88
2022/06/16 06:27:36;;;;;;;2.60;2.40;;;;;;;;;;5019259;28;20120;-87
2022/06/16 06:30:18;;;;;;;4.82;2.40;;;;;;;;;;5047137;28;20056;-88
2022/06/16 06:32:44;;;;;;;4.70;2.78;;;;;;;;;;5038457;28;20041;-88
2022/06/16 06:35:10;;;;;;;3.78;2.40;;;;;;;;;;5056496;28;20034;-88
2022/06/16 06:37:36;;;;;;;3.03;2.20;;;;;;;;;;5038529;28;20136;-89
2022/06/16 06:40:02;;;;;;;3.80;2.60;;;;;;;;;;5055931;28;20021;-89
2022/06/16 06:42:28;;;;;;;3.00;2.50;;;;;;;;;;5046367;28;20036;-88
2022/06/16 06:44:53;;;;;;;4.97;2.45;;;;;;;;;;5055445;28;20013;-88
2022/06/16 06:47:29;;;;;;;2.53;2.33;;;;;;;;;;5030641;28;20068;-87
2022/06/16 06:49:54;;;;;;;4.43;2.65;;;;;;;;;;5023313;28;20128;-88
2022/06/16 06:52:20;;;;;;;7.78;3.35;;;;;;;;;;5056737;28;20049;-88
2022/06/16 06:54:46;;;;;;;4.82;2.67;;;;;;;;;;5036191;28;20510;-88
2022/06/16 06:57:16;;;;;;;3.63;2.75;;;;;;;;;;5027365;28;20025;-89
2022/06/16 06:59:41;;;;;;;5.18;2.55;;;;;;;;;;5026968;28;20026;-88
2022/06/16 07:02:10;;;;;;;5.93;2.50;;;;;;;;;;5018872;28;20178;-88
2022/06/16 07:04:35;;;;;;;4.53;2.47;;;;;;;;;;5019235;28;20403;-88
2022/06/16 07:07:01;;;;;;;3.53;2.50;;;;;;;;;;5033128;28;20032;-87
2022/06/16 07:09:26;;;;;;;4.03;2.40;;;;;;;;;;5037276;28;20025;-88
2022/06/16 07:11:52;;;;;;;4.00;2.58;;;;;;;;;;5022665;28;20027;-88
2022/06/16 07:14:19;;;;;;;3.53;2.78;;;;;;;;;;5014199;28;20100;-88
2022/06/16 07:16:44;;;;;;;5.03;3.15;;;;;;;;;;5016971;28;20045;-86
2022/06/16 07:19:11;;;;;;;3.38;2.80;;;;;;;;;;5018485;28;20040;-87
2022/06/16 07:21:37;;;;;;;4.88;2.78;;;;;;;;;;5018977;28;20057;-88
2022/06/16 07:24:02;;;;;;;3.80;2.75;;;;;;;;;;5037461;28;20033;-87
2022/06/16 07:26:28;;;;;;;3.47;2.60;;;;;;;;;;5034495;28;20030;-88
2022/06/16 07:28:55;;;;;;;3.60;2.72;;;;;;;;;;5022576;28;20041;-87
2022/06/16 07:31:20;;;;;;;3.55;2.70;;;;;;;;;;5038802;28;20017;-87
2022/06/16 07:33:46;;;;;;;8.35;2.80;;;;;;;;;;5018953;28;20117;-87
2022/06/16 07:36:11;;;;;;;2.70;2.35;;;;;;;;;;5036413;28;20083;-87
2022/06/16 07:38:37;;;;;;;2.97;2.67;;;;;;;;;;5018208;28;20032;-88
2022/06/16 07:43:47;;;;;;;3.45;2.40;;;;;;;;;;5017057;28;20033;-86
2022/06/16 07:46:13;;;;;;;4.20;2.80;;;;;;;;;;5015648;28;20022;-87
2022/06/16 07:48:38;;;;;;;6.30;2.88;;;;;;;;;;5020237;28;20018;-86
2022/06/16 07:51:04;;;;;;;4.25;2.70;;;;;;;;;;5023876;28;20033;-86
2022/06/16 07:53:29;;;;;;;4.68;2.53;;;;;;;;;;5018675;28;20109;-87
2022/06/16 07:55:54;;;;;;;4.22;2.60;;;;;;;;;;5019668;28;20037;-86
2022/06/16 07:58:20;;;;;;;4.28;3.08;;;;;;;;;;5042032;28;20040;-86
2022/06/16 08:00:45;;;;;;;3.47;2.65;;;;;;;;;;5054754;28;20100;-86
2022/06/16 08:03:11;;;;;;;2.97;2.45;;;;;;;;;;5045697;28;20375;-85
2022/06/16 08:05:36;;;;;;;3.03;2.30;;;;;;;;;;5037847;28;20048;-87
2022/06/16 08:08:02;;;;;;;4.32;2.38;;;;;;;;;;5038545;28;20033;-86
2022/06/16 08:10:33;;;;;;;6.38;2.45;;;;;;;;;;5034700;28;20071;-87
2022/06/16 08:12:58;;;;;;;4.03;2.70;;;;;;;;;;5045091;28;20033;-87
2022/06/16 08:15:24;;;;;;;6.03;2.38;;;;;;;;;;5021737;28;20463;-86
2022/06/16 08:17:52;;;;;;;4.55;2.42;;;;;;;;;;5039501;28;20084;-87
2022/06/16 08:20:18;;;;;;;3.75;2.40;;;;;;;;;;5040366;28;20025;-86
2022/06/16 08:22:43;;;;;;;4.30;2.40;;;;;;;;;;5038773;28;20064;-86
2022/06/16 08:25:13;;;;;;;3.00;2.47;;;;;;;;;;5022429;28;20066;-86
2022/06/16 08:27:40;;;;;;;6.65;2.88;;;;;;;;;;5042951;28;20064;-87
2022/06/16 08:30:10;;;;;;;3.03;2.22;;;;;;;;;;5034532;28;20029;-87
2022/06/16 08:32:36;;;;;;;7.10;2.53;;;;;;;;;;5043079;28;20071;-88
2022/06/16 08:35:02;;;;;;;3.95;2.50;;;;;;;;;;5040873;28;20052;-86
2022/06/16 08:37:28;;;;;;;4.13;2.70;;;;;;;;;;5038541;28;20036;-87
2022/06/16 08:39:53;;;;;;;4.07;2.55;;;;;;;;;;5025811;28;20025;-86
2022/06/16 08:42:44;;;;;;;4.80;2.30;;;;;;;;;;5038128;28;20037;-86
2022/06/16 08:45:25;;;;;;;3.60;2.83;;;;;;;;;;5016403;28;20037;-87
2022/06/16 08:47:58;;;;;;;4.97;2.50;;;;;;;;;;5011601;28;20055;-87
2022/06/16 08:50:33;;;;;;;6.95;2.60;;;;;;;;;;5045668;28;20049;-86
2022/06/16 08:53:08;;;;;;;4.75;2.78;;;;;;;;;;5026894;28;20108;-87
2022/06/16 08:55:46;;;;;;;8.82;2.95;;;;;;;;;;5019571;28;20032;-86
2022/06/16 08:58:42;;;;;;;5.13;3.00;;;;;;;;;;5028377;28;20463;-87
2022/06/16 09:01:22;;;;;;;4.93;3.08;;;;;;;;;;5023513;28;20464;-87
2022/06/16 09:04:01;;;;;;;6.70;2.72;;;;;;;;;;5019717;28;20049;-88
2022/06/16 09:06:29;;;;;;;4.80;2.83;;;;;;;;;;5018684;28;20470;-87
2022/06/16 09:09:13;;;;;;;7.30;2.88;;;;;;;;;;5048007;28;20132;-86
2022/06/16 09:11:58;;;;;;;4.72;2.85;;;;;;;;;;5024637;28;20036;-86
2022/06/16 09:15:13;;;;;;;4.00;2.35;;;;;;;;;;5022667;28;20021;-87
2022/06/16 09:18:12;;;;;;;5.57;2.65;;;;;;;;;;5039274;28;20055;-87
2022/06/16 09:20:42;;;;;;;5.82;3.30;;;;;;;;;;5056828;28;20020;-87
2022/06/16 09:23:40;;;;;;;5.35;3.10;;;;;;;;;;5020862;28;20036;-87
2022/06/16 09:26:31;;;;;;;4.07;2.55;;;;;;;;;;5007435;28;20033;-87
2022/06/16 09:29:22;;;;;;;4.70;2.60;;;;;;;;;;5051088;28;20056;-87
2022/06/16 09:31:51;;;;;;;3.40;2.50;;;;;;;;;;5022503;28;20061;-87
2022/06/16 09:34:33;;;;;;;7.72;3.15;;;;;;;;;;5020588;28;20092;-86
2022/06/16 09:37:05;;;;;;;4.32;3.25;;;;;;;;;;5038588;28;20023;-87
2022/06/16 09:39:38;;;;;;;4.03;2.65;;;;;;;;;;5058997;28;20033;-87
2022/06/16 09:44:54;;;;;;;2.80;2.40;;;;;;;;;;5068100;28;20092;-86
2022/06/16 09:47:26;;;;;;;7.15;2.70;;;;;;;;;;5068433;28;20029;-87
2022/06/16 09:49:59;;;;;;;6.55;2.88;;;;;;;;;;5052563;28;20025;-86
2022/06/16 09:52:33;;;;;;;5.03;2.45;;;;;;;;;;5026397;28;20037;-87
2022/06/16 09:55:05;;;;;;;4.15;2.42;;;;;;;;;;5037955;28;20030;-86
2022/06/16 09:57:49;;;;;;;3.92;2.75;;;;;;;;;;5040463;28;20105;-87
2022/06/16 10:00:19;;;;;;;3.42;2.42;;;;;;;;;;5032791;28;20024;-87
2022/06/16 10:02:52;;;;;;;2.92;2.50;;;;;;;;;;5057548;28;20025;-87
2022/06/16 10:05:35;;;;;;;5.25;2.60;;;;;;;;;;5059729;28;20075;-87
2022/06/16 10:08:10;;;;;;;4.72;2.65;;;;;;;;;;5035260;28;20029;-87
2022/06/16 10:10:56;;;;;;;3.35;2.55;;;;;;;;;;5022553;28;20194;-88
2022/06/16 10:13:36;;;;;;;3.47;2.65;;;;;;;;;;5018550;28;20029;-88
2022/06/16 10:16:12;;;;;;;2.67;2.33;;;;;;;;;;5017328;28;20025;-87
2022/06/16 10:18:38;;;;;;;4.57;2.67;;;;;;;;;;5019989;28;20033;-87
2022/06/16 10:21:07;;;;;;;5.28;2.55;;;;;;;;;;5054228;28;20563;-87
2022/06/16 10:23:38;;;;;;;4.55;2.40;;;;;;;;;;5032984;28;20183;-87
2022/06/16 10:26:06;;;;;;;2.80;2.47;;;;;;;;;;5011726;28;20112;-87
2022/06/16 10:28:38;;;;;;;6.35;2.17;;;;;;;;;;5026200;28;20040;-87
2022/06/16 10:31:06;;;;;;;5.13;2.58;;;;;;;;;;5049303;28;20028;-86
2022/06/16 10:33:53;;;;;;;2.58;2.20;;;;;;;;;;5023282;28;20035;-87
2022/06/16 10:36:23;;;;;;;5.40;2.45;;;;;;;;;;5018093;28;20423;-86
2022/06/16 10:39:07;;;;;;;6.43;2.60;;;;;;;;;;5048243;28;20020;-86
2022/06/16 10:42:31;;;;;;;3.25;2.10;;;;;;;;;;5033448;28;20080;-87
2022/06/16 10:45:06;;;;;;;5.03;2.40;;;;;;;;;;4993848;28;20065;-86
2022/06/16 10:47:46;;;;;;;6.10;2.90;;;;;;;;;;5012236;28;20052;-88
2022/06/16 10:50:18;;;;;;;4.40;2.53;;;;;;;;;;5036226;28;20344;-87
2022/06/16 10:52:52;;;;;;;3.30;2.30;;;;;;;;;;5022221;28;20087;-87
2022/06/16 10:55:22;;;;;;;3.65;2.42;;;;;;;;;;5017622;28;20021;-86
2022/06/16 10:58:00;;;;;;;3.67;2.28;;;;;;;;;;5017120;28;20044;-86
2022/06/16 11:00:30;;;;;;;6.25;2.60;;;;;;;;;;5024336;28;20563;-86
2022/06/16 11:03:01;;;;;;;4.40;2.38;;;;;;;;;;5017192;28;20048;-87
2022/06/16 11:05:30;;;;;;;4.65;2.90;;;;;;;;;;5017464;28;20021;-87
2022/06/16 11:08:08;;;;;;;3.28;2.17;;;;;;;;;;5022046;28;20485;-87
2022/06/16 11:10:39;;;;;;;4.78;2.22;;;;;;;;;;5029404;28;20032;-86
2022/06/16 11:13:05;;;;;;;3.63;1.93;;;;;;;;;;5030264;28;20029;-88
2022/06/16 11:15:38;;;;;;;3.03;2.40;;;;;;;;;;5018236;28;20261;-86
2022/06/16 11:18:07;;;;;;;3.47;2.47;;;;;;;;;;5035448;28;20131;-86
2022/06/16 11:20:44;;;;;;;4.18;2.53;;;;;;;;;;5036407;28;20083;-86
2022/06/16 11:23:21;;;;;;;2.40;2.05;;;;;;;;;;5035544;28;20520;-86
2022/06/16 11:25:57;;;;;;;4.82;2.08;;;;;;;;;;5018458;28;20076;-86
2022/06/16 11:28:26;;;;;;;2.22;2.03;;;;;;;;;;5035596;28;20656;-86
2022/06/16 11:30:51;;;;;;;4.78;2.33;;;;;;;;;;5030054;28;20538;-86
2022/06/16 11:36:26;;;;;;;4.45;2.00;;;;;;;;;;5034126;28;20071;-85
2022/06/16 11:39:00;;;;;;;2.95;2.00;;;;;;;;;;5019504;28;20498;-86
2022/06/16 11:41:27;;;;;;;3.97;2.10;;;;;;;;;;5044645;28;20024;-85
2022/06/16 11:44:15;;;;;;;6.30;2.08;;;;;;;;;;5019694;28;20064;-85
2022/06/16 11:46:56;;;;;;;4.00;2.33;;;;;;;;;;5019288;28;20445;-86
2022/06/16 11:49:32;;;;;;;5.75;2.70;;;;;;;;;;5043136;28;20037;-85
2022/06/16 11:52:25;;;;;;;3.78;2.00;;;;;;;;;;5024406;28;20032;-85
2022/06/16 11:55:23;;;;;;;4.32;1.83;;;;;;;;;;5032418;28;20092;-85
2022/06/16 11:58:07;;;;;;;3.25;1.98;;;;;;;;;;5013760;28;20022;-84
2022/06/16 12:00:50;;;;;;;2.72;2.00;;;;;;;;;;5022565;28;20049;-85
2022/06/16 12:03:28;;;;;;;3.95;1.90;;;;;;;;;;5039514;28;20068;-86
2022/06/16 12:05:53;;;;;;;2.88;2.20;;;;;;;;;;5022344;28;20036;-86
2022/06/16 12:08:32;;;;;;;2.40;2.05;;;;;;;;;;5022106;28;20029;-86
2022/06/16 12:11:12;;;;;;;2.03;1.90;;;;;;;;;;5025414;28;20059;-87
2022/06/16 12:13:52;;;;;;;5.25;2.50;;;;;;;;;;5036237;28;20026;-84
2022/06/16 12:16:28;;;;;;;2.28;1.98;;;;;;;;;;5031390;28;20041;-85
2022/06/16 12:19:16;;;;;;;3.45;2.03;;;;;;;;;;5025442;28;20022;-85
2022/06/16 12:21:42;;;;;;;3.05;2.10;;;;;;;;;;5044607;28;20155;-85
2022/06/16 12:24:07;;;;;;;2.83;1.92;;;;;;;;;;5028225;28;20029;-85
2022/06/16 12:26:56;;;;;;;2.50;2.03;;;;;;;;;;5028823;28;20025;-85
2022/06/16 12:29:21;;;;;;;2.53;2.13;;;;;;;;;;5048762;28;20033;-86
2022/06/16 12:32:08;;;;;;;5.43;2.30;;;;;;;;;;5043177;28;20040;-86
2022/06/16 12:34:55;;;;;;;3.63;2.67;;;;;;;;;;5035547;28;20477;-87
2022/06/16 12:37:23;;;;;;;4.93;2.30;;;;;;;;;;5020200;28;20025;-86
2022/06/16 12:40:01;;;;;;;3.22;1.92;;;;;;;;;;5020425;28;20060;-86
2022/06/16 12:42:32;;;;;;;2.30;1.83;;;;;;;;;;5045383;28;20052;-87
2022/06/16 12:45:05;;;;;;;4.38;2.10;;;;;;;;;;5023160;28;20055;-87
2022/06/16 12:47:39;;;;;;;3.78;2.10;;;;;;;;;;5022463;28;20025;-86
2022/06/16 12:50:13;;;;;;;5.30;2.40;;;;;;;;;;5044352;28;20029;-87
2022/06/16 12:53:04;;;;;;;4.38;2.40;;;;;;;;;;5046534;28;20064;-87
2022/06/16 12:55:35;;;;;;;2.88;2.10;;;;;;;;;;5023438;28;20039;-86
2022/06/16 12:58:04;;;;;;;;;;;;;;;;;;5024378;28;20072;-87
2022/06/16 13:00:36;;;;;;;2.38;1.90;;;;;;;;;;5026014;28;19909;-87
2022/06/16 13:03:04;;;;;;;;;;;;;;;;;;5042685;28;20087;-86
2022/06/16 13:05:30;;;;;;;6.75;2.00;;;;;;;;;;5022690;28;19985;-87
2022/06/16 13:07:57;;;;;;;2.97;2.00;;;;;;;;;;5022458;28;20362;-87
2022/06/16 13:10:23;;;;;;;4.88;1.95;;;;;;;;;;5021820;28;20021;-87
2022/06/16 13:12:52;;;;;;;3.03;1.98;;;;;;;;;;5020864;28;20072;-87
2022/06/16 13:15:38;;;;;;;4.00;1.98;;;;;;;;;;5039970;28;20024;-86
2022/06/16 13:18:13;;;;;;;3.28;1.90;;;;;;;;;;5029137;28;20343;-86
2022/06/16 13:20:40;;;;;;;2.78;1.88;;;;;;;;;;5023308;28;20101;-86
2022/06/16 13:23:17;;;;;;;5.28;2.13;;;;;;;;;;5020681;28;20060;-88
2022/06/16 13:25:55;;;;;;;2.85;1.92;;;;;;;;;;5021011;28;20029;-87
2022/06/16 13:28:35;;;;;;;3.83;1.85;;;;;;;;;;5020326;28;20045;-87
2022/06/16 13:31:22;;;;;;;2.22;1.70;;;;;;;;;;5037267;28;20056;-86
2022/06/16 13:34:38;;;;;;;7.47;2.10;;;;;;;;;;5030012;28;20459;-85
2022/06/16 13:37:04;;;;;;;3.67;1.70;;;;;;;;;;5018195;28;20040;-85
2022/06/16 13:39:47;;;;;;;3.35;1.77;;;;;;;;;;5049377;28;20112;-86
2022/06/16 13:42:17;;;;;;;4.05;1.90;;;;;;;;;;5027468;28;20184;-85
2022/06/16 13:45:10;;;;;;;2.00;1.80;;;;;;;;;;5028047;28;20064;-87
2022/06/16 13:47:41;;;;;;;2.63;1.90;;;;;;;;;;5041212;28;20064;-84
2022/06/16 13:50:11;;;;;;;2.35;1.80;;;;;;;;;;5026582;28;20040;-85
2022/06/16 13:52:41;;;;;;;2.15;1.90;;;;;;;;;;5022620;28;20031;-86
2022/06/16 13:55:28;;;;;;;5.73;2.00;;;;;;;;;;5046891;28;20052;-85
2022/06/16 13:58:20;;;;;;;5.30;2.08;;;;;;;;;;5010099;28;20029;-87
2022/06/16 14:01:05;;;;;;;7.32;2.20;;;;;;;;;;5030074;28;20029;-86
2022/06/16 14:03:32;;;;;;;5.18;1.90;;;;;;;;;;5025733;28;20093;-86
2022/06/16 14:06:08;;;;;;;2.75;1.85;;;;;;;;;;5035933;28;20022;-85
2022/06/16 14:08:36;;;;;;;2.53;1.70;;;;;;;;;;5027535;28;20029;-85
2022/06/16 14:11:20;;;;;;;4.82;2.28;;;;;;;;;;5041197;28;20045;-85
2022/06/16 14:14:16;;;;;;;5.30;2.20;;;;;;;;;;5019855;28;20041;-86
2022/06/16 14:16:45;;;;;;;4.43;2.20;;;;;;;;;;5024371;28;20034;-86
2022/06/16 14:19:13;;;;;;;8.48;2.17;;;;;;;;;;5021075;28;20025;-84
2022/06/16 14:21:46;;;;;;;2.03;1.80;;;;;;;;;;5032666;28;20041;-84
2022/06/16 14:24:37;;;;;;;3.38;1.80;;;;;;;;;;5036978;28;20039;-85
2022/06/16 14:27:10;;;;;;;2.28;2.08;;;;;;;;;;5046313;28;20021;-86
2022/06/16 14:29:38;;;;;;;3.55;2.05;;;;;;;;;;5059735;28;20056;-86
2022/06/16 14:32:08;;;;;;;2.03;1.85;;;;;;;;;;5031774;28;20025;-85
2022/06/16 14:34:48;;;;;;;4.13;2.20;;;;;;;;;;5038343;28;20022;-85
2022/06/16 14:37:30;;;;;;;3.30;2.40;;;;;;;;;;5019681;28;20090;-86
2022/06/16 14:40:11;;;;;;;4.30;2.00;;;;;;;;;;5031122;28;20029;-85
2022/06/16 14:42:41;;;;;;;3.55;2.17;;;;;;;;;;5017759;28;20036;-85
2022/06/16 14:45:17;;;;;;;3.67;1.95;;;;;;;;;;5031563;28;20049;-85
2022/06/16 14:48:20;;;;;;;3.58;2.10;;;;;;;;;;5015409;28;20037;-85
2022/06/16 14:50:49;;;;;;;7.07;2.00;;;;;;;;;;5022793;28;20069;-85
2022/06/16 14:53:28;;;;;;;4.65;2.08;;;;;;;;;;5017638;28;20418;-85
2022/06/16 14:56:10;;;;;;;2.25;1.80;;;;;;;;;;5021162;28;20014;-87
2022/06/16 14:58:46;;;;;;;;;;;;;;;;;;5018385;28;20079;-84
2022/06/16 15:01:13;;;;;;;3.55;1.98;;;;;;;;;;5018507;28;19975;-86
2022/06/16 15:03:42;;;;;;;2.53;2.00;;;;;;;;;;5020494;28;20459;-86
2022/06/16 15:06:08;;;;;;;4.22;2.25;;;;;;;;;;5037899;28;20057;-86
2022/06/16 15:08:37;;;;;;;6.05;1.92;;;;;;;;;;5038458;28;20045;-87
2022/06/16 15:11:07;;;;;;;2.00;1.73;;;;;;;;;;5043212;28;20036;-86
2022/06/16 15:13:36;;;;;;;4.90;1.80;;;;;;;;;;5038251;28;20033;-87
2022/06/16 15:16:05;;;;;;;2.85;1.73;;;;;;;;;;5017248;28;20052;-87
2022/06/16 15:18:36;;;;;;;2.65;2.10;;;;;;;;;;5017694;28;20040;-86
2022/06/16 15:21:10;;;;;;;2.40;1.70;;;;;;;;;;5036307;28;20382;-86
2022/06/16 15:23:39;;;;;;;2.85;1.90;;;;;;;;;;5030161;28;20479;-86
2022/06/16 15:38:18;;;;;;;3.28;1.88;;;;;;;;;;5037578;28;20031;-85
2022/06/16 15:40:46;;;;;;;2.95;2.40;;;;;;;;;;5018464;28;20052;-86
2022/06/16 15:43:15;;;;;;;3.65;2.08;;;;;;;;;;5034625;28;20061;-85
2022/06/16 15:45:54;;;;;;;4.38;2.10;;;;;;;;;;5031884;28;20039;-85
2022/06/16 15:48:23;;;;;;;2.85;2.00;;;;;;;;;;5023322;28;20131;-85
2022/06/16 15:50:49;;;;;;;5.20;2.10;;;;;;;;;;5018552;28;20167;-86
2022/06/16 15:53:18;;;;;;;5.43;1.90;;;;;;;;;;5015009;28;20030;-87